Time;durP1;ratioP1;P1;durP2;ratioP2;P2;SDS_P1;SDS_P2;PMS_P1;PMS_P2;Temp;Humidity;BMP_temperature;BMP_pressure;BME280_temperature;BME280_humidity;BME280_pressure;Samples;Min_cycle;Max_cycle;Signal;HPM_P1;HPM_P2
2021/07/13 00:01:53;;;;;;;;;;;;;;;18.16;80.00;98716.00;4957835;28;19918;-61
2021/07/13 00:04:18;;;;;;;;;;;;;;;18.15;79.36;98717.13;4958321;28;19914;-62
2021/07/13 00:06:44;;;;;;;;;;;;;;;18.07;80.40;98711.28;4957989;28;19918;-62
2021/07/13 00:09:09;;;;;;;;;;;;;;;18.09;81.06;98713.69;4958053;28;20000;-61
2021/07/13 00:11:34;;;;;;;;;;;;;;;18.06;80.57;98708.88;4957692;28;20369;-61
2021/07/13 00:13:59;;;;;;;;;;;;;;;18.11;79.13;98714.97;4958164;28;19914;-61
2021/07/13 00:16:25;;;;;;;;;;;;;;;18.09;79.90;98710.97;4957700;28;20240;-61
2021/07/13 00:18:50;;;;;;;;;;;;;;;18.04;80.08;98716.50;4957895;28;19914;-61
2021/07/13 00:21:15;;;;;;;;;;;;;;;18.02;79.60;98724.13;4957508;28;19925;-61
2021/07/13 00:23:41;;;;;;;;;;;;;;;17.91;81.00;98722.75;4957856;28;19969;-61
2021/07/13 00:26:06;;;;;;;;;;;;;;;17.91;80.93;98730.91;4957656;28;19918;-61
2021/07/13 00:28:31;;;;;;;;;;;;;;;17.95;80.89;98718.34;4956672;28;19986;-61
2021/07/13 00:30:57;;;;;;;;;;;;;;;17.91;80.56;98723.56;4957614;28;19918;-61
2021/07/13 00:33:22;;;;;;;;;;;;;;;17.86;80.88;98727.16;4957875;28;19997;-61
2021/07/13 00:35:47;;;;;;;;;;;;;;;17.95;80.08;98729.19;4957274;28;19922;-62
2021/07/13 00:38:12;;;;;;;;;;;;;;;17.94;80.56;98731.06;4956352;28;19914;-61
2021/07/13 00:40:38;;;;;;;;;;;;;;;17.88;81.01;98732.31;4957318;28;20368;-61
2021/07/13 00:43:03;;;;;;;;;;;;;;;17.91;81.01;98728.19;4957758;28;19915;-62
2021/07/13 00:45:29;;;;;;;;;;;;;;;17.90;81.13;98724.69;4956088;28;19918;-61
2021/07/13 00:47:54;;;;;;;;;;;;;;;17.78;82.14;98727.84;4957722;28;20001;-61
2021/07/13 00:50:21;;;;;;;;;;;;;;;17.74;82.51;98724.13;4957006;28;20098;-61
2021/07/13 00:52:46;;;;;;;;;;;;;;;17.76;82.61;98721.94;4957308;28;19993;-61
2021/07/13 00:55:12;;;;;;;;;;;;;;;17.69;82.56;98716.09;4957135;28;20382;-62
2021/07/13 00:57:38;;;;;;;;;;;;;;;17.74;82.56;98717.91;4957343;28;20320;-61
2021/07/13 01:00:10;;;;;;;;;;;;;;;17.72;82.57;98722.81;4956950;28;20277;-62
2021/07/13 01:02:35;;;;;;;;;;;;;;;17.77;82.34;98726.25;4957119;28;20404;-61
2021/07/13 01:05:00;;;;;;;;;;;;;;;17.80;82.05;98722.19;4955598;28;19930;-63
2021/07/13 01:07:44;;;;;;;;;;;;;;;17.83;81.92;98719.66;4955843;29;19907;-62
2021/07/13 01:10:12;;;;;;;;;;;;;;;17.72;82.84;98725.53;4971245;28;19914;-61
2021/07/13 01:12:50;;;;;;;;;;;;;;;17.61;83.27;98728.44;4955922;29;19922;-61
2021/07/13 01:15:17;;;;;;;;;;;;;;;17.46;84.52;98721.41;4955339;28;20357;-62
2021/07/13 01:17:53;;;;;;;;;;;;;;;17.47;84.59;98714.09;4955683;29;20313;-62
2021/07/13 01:20:30;;;;;;;;;;;;;;;17.47;84.30;98719.50;4955107;28;19922;-61
2021/07/13 01:23:03;;;;;;;;;;;;;;;17.52;84.80;98713.19;4956771;28;19915;-61
2021/07/13 01:25:41;;;;;;;;;;;;;;;17.53;84.78;98718.31;4956504;28;19918;-61
2021/07/13 01:28:07;;;;;;;;;;;;;;;17.41;85.88;98707.97;4956813;28;19914;-61
2021/07/13 01:30:33;;;;;;;;;;;;;;;17.41;86.06;98715.31;4956515;28;20353;-62
2021/07/13 01:32:58;;;;;;;;;;;;;;;17.40;86.47;98709.09;4956663;28;19986;-62
2021/07/13 01:35:25;;;;;;;;;;;;;;;17.40;86.54;98719.94;4956356;28;19926;-62
2021/07/13 01:37:51;;;;;;;;;;;;;;;17.24;87.19;98713.16;4955447;29;19949;-62
2021/07/13 01:40:16;;;;;;;;;;;;;;;17.09;87.60;98713.44;4954966;28;19977;-62
2021/07/13 01:42:41;;;;;;;;;;;;;;;17.14;87.18;98707.94;4955398;29;20005;-62
2021/07/13 01:45:07;;;;;;;;;;;;;;;17.14;87.38;98706.03;4955027;28;19957;-62
2021/07/13 01:47:33;;;;;;;;;;;;;;;17.21;87.63;98711.06;4956320;28;19928;-62
2021/07/13 01:49:59;;;;;;;;;;;;;;;17.10;89.23;98710.47;4956410;28;19914;-63
2021/07/13 01:52:24;;;;;;;;;;;;;;;16.96;87.79;98709.63;4954792;29;19919;-63
2021/07/13 01:54:49;;;;;;;;;;;;;;;16.94;88.49;98706.38;4955165;29;20436;-62
2021/07/13 01:57:16;;;;;;;;;;;;;;;16.86;89.23;98704.38;4954620;28;19918;-62
2021/07/13 01:59:41;;;;;;;;;;;;;;;16.77;89.54;98702.31;4955129;29;19914;-63
2021/07/13 02:02:07;;;;;;;;;;;;;;;16.76;90.40;98702.59;4954626;29;19925;-62
2021/07/13 02:04:33;;;;;;;;;;;;;;;16.55;90.73;98700.22;4956147;28;19925;-63
2021/07/13 02:06:59;;;;;;;;;;;;;;;16.63;90.67;98700.66;4954634;29;19918;-63
2021/07/13 02:09:24;;;;;;;;;;;;;;;16.64;90.41;98703.06;4955034;29;19914;-63
2021/07/13 02:11:49;;;;;;;;;;;;;;;16.54;90.14;98709.44;4954340;28;20369;-63
2021/07/13 02:14:15;;;;;;;;;;;;;;;16.66;89.98;98702.78;4955038;29;19922;-63
2021/07/13 02:16:40;;;;;;;;;;;;;;;16.64;90.88;98707.66;4954350;28;19918;-63
2021/07/13 02:19:06;;;;;;;;;;;;;;;16.70;89.30;98701.91;4956317;28;19918;-63
2021/07/13 02:21:32;;;;;;;;;;;;;;;16.39;91.38;98699.66;4955161;28;19945;-63
2021/07/13 02:23:58;;;;;;;;;;;;;;;16.46;91.54;98701.19;4956035;28;20013;-63
2021/07/13 02:26:49;;;;;;;;;;;;;;;16.43;91.02;98705.28;4955462;28;19954;-63
2021/07/13 02:29:16;;;;;;;;;;;;;;;16.47;91.43;98709.00;4954703;28;19914;-62
2021/07/13 02:31:44;;;;;;;;;;;;;;;16.57;90.46;98703.44;4955548;28;19973;-62
2021/07/13 02:34:10;;;;;;;;;;;;;;;16.52;90.69;98700.78;4954478;29;19914;-63
2021/07/13 02:36:36;;;;;;;;;;;;;;;16.50;91.46;98703.03;4955252;28;19973;-63
2021/07/13 02:39:04;;;;;;;;;;;;;;;16.56;90.13;98698.31;4955493;28;19936;-63
2021/07/13 02:41:29;;;;;;;;;;;;;;;16.60;89.88;98696.66;4955156;28;19918;-62
2021/07/13 02:43:54;;;;;;;;;;;;;;;16.56;90.03;98699.13;4954495;29;20005;-63
2021/07/13 02:46:20;;;;;;;;;;;;;;;16.60;90.31;98697.44;4953644;29;19941;-63
2021/07/13 02:48:45;;;;;;;;;;;;;;;16.57;90.51;98692.63;4970427;28;20379;-63
2021/07/13 02:51:10;;;;;;;;;;;;;;;16.58;90.11;98688.81;4969841;28;19922;-63
2021/07/13 02:53:36;;;;;;;;;;;;;;;16.53;90.57;98688.91;4955388;28;20368;-63
2021/07/13 02:56:02;;;;;;;;;;;;;;;16.43;90.75;98690.97;4953834;29;20065;-63
2021/07/13 02:58:27;;;;;;;;;;;;;;;16.42;91.13;98697.44;4954136;28;20484;-63
2021/07/13 03:00:53;;;;;;;;;;;;;;;16.45;90.71;98694.97;4953690;28;20017;-63
2021/07/13 03:03:19;;;;;;;;;;;;;;;16.38;90.89;98698.03;4955190;28;19915;-62
2021/07/13 03:05:45;;;;;;;;;;;;;;;16.42;90.65;98700.94;4953522;29;19989;-62
2021/07/13 03:08:11;;;;;;;;;;;;;;;16.43;90.75;98702.59;4953941;29;19949;-63
2021/07/13 03:10:36;;;;;;;;;;;;;;;16.46;90.45;98698.47;4953542;29;19966;-63
2021/07/13 03:13:01;;;;;;;;;;;;;;;16.55;89.21;98702.13;4954162;29;20026;-63
2021/07/13 03:15:30;;;;;;;;;;;;;;;16.55;89.87;98694.81;4937785;29;19925;-63
2021/07/13 03:17:55;;;;;;;;;;;;;;;16.58;90.03;98690.72;4955147;28;19946;-63
2021/07/13 03:20:21;;;;;;;;;;;;;;;16.63;89.99;98687.94;4953398;28;20392;-63
2021/07/13 03:22:46;;;;;;;;;;;;;;;16.60;90.01;98697.44;4954967;28;19914;-63
2021/07/13 03:25:25;;;;;;;;;;;;;;;16.58;90.51;98691.53;4954687;28;20059;-63
2021/07/13 03:27:50;;;;;;;;;;;;;;;16.54;89.93;98693.19;4953937;29;19911;-63
2021/07/13 03:30:16;;;;;;;;;;;;;;;16.54;90.05;98687.78;4954609;28;19914;-62
2021/07/13 03:32:41;;;;;;;;;;;;;;;16.41;90.45;98683.13;4955914;28;19910;-63
2021/07/13 03:35:06;;;;;;;;;;;;;;;16.38;90.56;98683.72;4957196;28;19922;-63
2021/07/13 03:37:32;;;;;;;;;;;;;;;16.48;90.43;98678.16;4957811;29;19918;-63
2021/07/13 03:39:57;;;;;;;;;;;;;;;16.48;90.63;98678.16;4958599;28;19968;-63
2021/07/13 03:42:22;;;;;;;;;;;;;;;16.60;89.02;98675.81;4941198;29;19929;-62
2021/07/13 03:44:48;;;;;;;;;;;;;;;16.60;89.10;98686.63;4958916;28;19914;-62
2021/07/13 03:47:14;;;;;;;;;;;;;;;16.54;89.80;98676.97;4956706;29;19922;-62
2021/07/13 03:49:39;;;;;;;;;;;;;;;16.52;89.85;98675.66;4958535;28;19918;-62
2021/07/13 03:52:04;;;;;;;;;;;;;;;16.48;90.31;98672.75;4956939;29;19919;-62
2021/07/13 03:54:30;;;;;;;;;;;;;;;16.43;90.68;98670.13;4958755;28;19935;-62
2021/07/13 03:56:55;;;;;;;;;;;;;;;16.45;89.81;98667.09;4958115;28;19919;-62
2021/07/13 03:59:20;;;;;;;;;;;;;;;16.51;90.45;98664.03;4958475;28;19945;-62
2021/07/13 04:01:45;;;;;;;;;;;;;;;16.50;90.39;98661.63;4958141;28;19923;-63
2021/07/13 04:04:11;;;;;;;;;;;;;;;16.52;90.38;98652.09;4958400;28;19936;-62
2021/07/13 04:06:36;;;;;;;;;;;;;;;16.44;91.53;98660.91;4957961;28;19914;-62
2021/07/13 04:09:02;;;;;;;;;;;;;;;16.35;90.71;98654.56;4958743;28;20361;-62
2021/07/13 04:11:29;;;;;;;;;;;;;;;16.38;90.51;98656.69;4957843;28;20384;-62
2021/07/13 04:13:54;;;;;;;;;;;;;;;16.36;90.74;98656.16;4958425;28;19915;-62
2021/07/13 04:16:19;;;;;;;;;;;;;;;16.31;91.19;98653.53;4957647;28;20288;-62
2021/07/13 04:18:44;;;;;;;;;;;;;;;16.38;91.48;98649.38;4958628;28;19961;-63
2021/07/13 04:21:10;;;;;;;;;;;;;;;16.36;90.76;98648.06;4957625;28;19923;-63
2021/07/13 04:23:35;;;;;;;;;;;;;;;16.30;91.00;98652.75;4956763;28;19915;-63
2021/07/13 04:26:00;;;;;;;;;;;;;;;16.29;91.34;98647.63;4957589;28;20344;-63
2021/07/13 04:28:26;;;;;;;;;;;;;;;16.31;91.32;98654.34;4956611;28;19921;-63
2021/07/13 04:30:52;;;;;;;;;;;;;;;16.39;90.71;98650.16;4956222;28;20281;-63
2021/07/13 04:33:17;;;;;;;;;;;;;;;16.42;90.54;98646.88;4957793;28;19915;-62
2021/07/13 04:35:43;;;;;;;;;;;;;;;16.43;90.44;98640.38;4957351;28;19926;-62
2021/07/13 04:38:08;;;;;;;;;;;;;;;16.36;90.57;98637.25;4957838;28;20368;-63
2021/07/13 04:40:34;;;;;;;;;;;;;;;16.37;90.65;98638.84;4957183;28;20369;-62
2021/07/13 04:42:59;;;;;;;;;;;;;;;16.45;90.75;98640.88;4957511;28;19966;-62
2021/07/13 04:45:24;;;;;;;;;;;;;;;16.50;91.66;98643.50;4956473;28;19953;-63
2021/07/13 04:47:49;;;;;;;;;;;;;;;16.43;90.84;98643.09;4957333;28;19918;-63
2021/07/13 04:50:15;;;;;;;;;;;;;;;16.33;90.59;98646.75;4957012;28;20001;-63
2021/07/13 04:52:40;;;;;;;;;;;;;;;16.32;90.92;98653.22;4957768;28;19914;-63
2021/07/13 04:55:06;;;;;;;;;;;;;;;16.14;92.40;98646.75;4957252;28;20373;-62
2021/07/13 04:57:31;;;;;;;;;;;;;;;16.23;92.89;98654.22;4957448;28;20391;-63
2021/07/13 04:59:56;;;;;;;;;;;;;;;16.28;91.73;98659.53;4957726;28;19947;-63
2021/07/13 05:02:22;;;;;;;;;;;;;;;16.33;91.64;98659.47;4956948;28;19922;-63
2021/07/13 05:04:47;;;;;;;;;;;;;;;16.37;91.40;98655.88;4956006;28;19924;-62
2021/07/13 05:07:12;;;;;;;;;;;;;;;16.39;90.81;98666.38;4956930;28;19919;-63
2021/07/13 05:09:38;;;;;;;;;;;;;;;16.42;90.91;98668.50;4957314;28;19921;-63
2021/07/13 05:12:03;;;;;;;;;;;;;;;16.39;90.90;98669.91;4956824;28;19918;-63
2021/07/13 05:14:28;;;;;;;;;;;;;;;16.27;90.78;98671.44;4957079;28;19953;-63
2021/07/13 05:16:54;;;;;;;;;;;;;;;16.37;90.90;98668.59;4956754;28;19925;-63
2021/07/13 05:19:19;;;;;;;;;;;;;;;16.52;89.79;98664.84;4956914;28;19914;-62
2021/07/13 05:21:49;;;;;;;;;;;;;;;16.36;91.00;98658.88;4971451;28;20288;-63
2021/07/13 05:24:14;;;;;;;;;;;;;;;16.44;90.81;98654.69;4957306;28;19976;-63
2021/07/13 05:26:39;;;;;;;;;;;;;;;16.48;90.51;98656.53;4956512;28;19919;-62
2021/07/13 05:29:05;;;;;;;;;;;;;;;16.61;90.34;98641.44;4957027;28;19914;-62
2021/07/13 05:31:30;;;;;;;;;;;;;;;16.56;89.82;98633.41;4955242;29;20390;-62
2021/07/13 05:33:57;;;;;;;;;;;;;;;16.53;89.73;98628.59;4956835;28;20024;-62
2021/07/13 05:36:25;;;;;;;;;;;;;;;16.59;90.52;98622.78;4956562;28;19941;-62
2021/07/13 05:38:50;;;;;;;;;;;;;;;16.67;90.28;98615.09;4956708;28;19921;-62
2021/07/13 05:41:16;;;;;;;;;;;;;;;16.77;90.85;98623.03;4956233;28;19918;-62
2021/07/13 05:43:42;;;;;;;;;;;;;;;16.77;89.50;98631.13;4955562;29;19953;-62
2021/07/13 05:46:07;;;;;;;;;;;;;;;16.86;90.00;98632.09;4956375;28;20328;-63
2021/07/13 05:48:32;;;;;;;;;;;;;;;16.91;90.06;98629.28;4956349;28;19964;-62
2021/07/13 05:50:57;;;;;;;;;;;;;;;16.95;90.27;98626.81;4956118;28;20377;-62
2021/07/13 05:53:23;;;;;;;;;;;;;;;17.01;90.46;98636.44;4956575;28;19910;-63
2021/07/13 05:55:48;;;;;;;;;;;;;;;17.03;89.39;98645.84;4955400;28;20392;-62
2021/07/13 05:58:13;;;;;;;;;;;;;;;17.12;89.50;98648.66;4956011;28;19915;-62
2021/07/13 06:00:39;;;;;;;;;;;;;;;17.07;88.86;98645.25;4956053;28;20285;-63
2021/07/13 06:03:04;;;;;;;;;;;;;;;17.10;88.58;98637.34;4956151;28;20352;-62
2021/07/13 06:05:30;;;;;;;;;;;;;;;17.15;88.33;98642.66;4956000;28;19915;-62
2021/07/13 06:07:55;;;;;;;;;;;;;;;17.10;87.81;98640.06;4956374;28;20292;-62
2021/07/13 06:10:20;;;;;;;;;;;;;;;16.99;88.58;98639.44;4955965;28;19918;-62
2021/07/13 06:12:46;;;;;;;;;;;;;;;16.97;88.00;98640.81;4954961;29;20321;-62
2021/07/13 06:15:11;;;;;;;;;;;;;;;16.92;88.09;98643.63;4955590;28;19914;-62
2021/07/13 06:17:39;;;;;;;;;;;;;;;16.78;89.07;98646.31;4955882;28;19914;-62
2021/07/13 06:20:04;;;;;;;;;;;;;;;16.82;88.99;98650.03;4955708;28;19914;-62
2021/07/13 06:22:29;;;;;;;;;;;;;;;16.75;89.57;98646.91;4955944;28;20329;-62
2021/07/13 06:24:55;;;;;;;;;;;;;;;16.77;89.57;98653.63;4956089;28;19911;-62
2021/07/13 06:27:20;;;;;;;;;;;;;;;16.77;89.16;98641.97;4954349;29;20292;-62
2021/07/13 06:29:46;;;;;;;;;;;;;;;16.78;89.58;98636.28;4955847;28;19961;-62
2021/07/13 06:32:11;;;;;;;;;;;;;;;16.94;89.49;98634.09;4955305;28;20364;-62
2021/07/13 06:34:36;;;;;;;;;;;;;;;17.00;89.86;98635.63;4956035;28;19914;-62
2021/07/13 06:37:01;;;;;;;;;;;;;;;17.20;89.34;98630.94;4955259;28;19957;-62
2021/07/13 06:39:27;;;;;;;;;;;;;;;17.21;89.55;98635.25;4955770;28;19917;-62
2021/07/13 06:41:53;;;;;;;;;;;;;;;17.13;88.94;98638.66;4955249;28;19954;-62
2021/07/13 06:44:18;;;;;;;;;;;;;;;16.97;89.30;98636.25;4955652;28;19911;-62
2021/07/13 06:46:44;;;;;;;;;;;;;;;17.02;89.33;98633.44;4954966;28;20373;-62
2021/07/13 06:49:09;;;;;;;;;;;;;;;17.06;90.06;98632.84;4955511;28;20001;-62
2021/07/13 06:51:34;;;;;;;;;;;;;;;17.13;89.36;98636.75;4955135;28;19914;-62
2021/07/13 06:53:59;;;;;;;;;;;;;;;17.01;89.84;98637.22;4955521;28;19945;-62
2021/07/13 06:56:25;;;;;;;;;;;;;;;16.77;90.43;98641.97;4955261;28;19977;-62
2021/07/13 06:58:50;;;;;;;;;;;;;;;16.77;91.11;98642.78;4954110;28;19921;-62
2021/07/13 07:01:16;;;;;;;;;;;;;;;16.89;90.78;98636.91;4954895;28;19918;-62
2021/07/13 07:03:41;;;;;;;;;;;;;;;17.00;89.93;98641.03;4955309;28;19915;-62
2021/07/13 07:06:06;;;;;;;;;;;;;;;16.91;90.96;98642.03;4955049;28;20349;-62
2021/07/13 07:08:31;;;;;;;;;;;;;;;16.95;90.50;98649.25;4953898;28;19915;-62
2021/07/13 07:10:57;;;;;;;;;;;;;;;16.95;90.92;98660.09;4954980;28;19976;-62
2021/07/13 07:13:22;;;;;;;;;;;;;;;17.15;89.59;98666.25;4955218;28;19918;-62
2021/07/13 07:15:48;;;;;;;;;;;;;;;17.26;89.76;98664.94;4954907;28;19919;-62
2021/07/13 07:18:13;;;;;;;;;;;;;;;17.20;89.99;98672.34;4955183;28;19921;-62
2021/07/13 07:20:38;;;;;;;;;;;;;;;17.32;89.63;98673.75;4953694;29;19984;-62
2021/07/13 07:23:04;;;;;;;;;;;;;;;17.15;91.01;98677.06;4955477;28;20392;-61
2021/07/13 07:25:30;;;;;;;;;;;;;;;17.19;90.46;98675.34;4954842;28;19918;-62
2021/07/13 07:27:56;;;;;;;;;;;;;;;17.07;90.97;98672.31;4955253;28;20000;-62
2021/07/13 07:30:21;;;;;;;;;;;;;;;17.24;90.03;98673.34;4954771;28;20024;-62
2021/07/13 07:32:47;;;;;;;;;;;;;;;17.12;90.41;98675.72;4955017;28;19919;-61
2021/07/13 07:35:12;;;;;;;;;;;;;;;17.22;89.66;98674.75;4953662;28;19926;-62
2021/07/13 07:37:37;;;;;;;;;;;;;;;17.20;90.07;98676.97;4955419;28;19953;-62
2021/07/13 07:40:06;;;;;;;;;;;;;;;17.30;89.46;98676.78;4954504;28;19918;-62
2021/07/13 07:42:34;;;;;;;;;;;;;;;17.21;90.84;98673.16;4955084;28;19918;-61
2021/07/13 07:44:59;;;;;;;;;;;;;;;17.23;91.06;98670.97;4955017;28;19940;-61
2021/07/13 07:47:25;;;;;;;;;;;;;;;17.08;91.08;98669.34;4954217;28;20444;-62
2021/07/13 07:49:50;;;;;;;;;;;;;;;17.19;90.46;98673.44;4955071;28;19914;-62
2021/07/13 07:52:16;;;;;;;;;;;;;;;17.24;90.69;98677.97;4953260;28;19919;-61
2021/07/13 07:54:41;;;;;;;;;;;;;;;17.39;89.53;98674.16;4954974;28;19965;-62
2021/07/13 07:57:06;;;;;;;;;;;;;;;17.31;90.11;98677.56;4954567;28;20305;-62
2021/07/13 07:59:32;;;;;;;;;;;;;;;17.27;90.52;98677.34;4954921;28;19918;-62
2021/07/13 08:01:57;;;;;;;;;;;;;;;17.46;90.20;98669.16;4969283;28;20419;-62
2021/07/13 08:04:22;;;;;;;;;;;;;;;17.73;88.66;98678.38;4955304;28;19919;-61
2021/07/13 08:06:47;;;;;;;;;;;;;;;17.55;89.74;98670.06;4954328;28;19918;-62
2021/07/13 08:09:13;;;;;;;;;;;;;;;17.92;87.80;98662.81;4954863;28;20001;-62
2021/07/13 08:11:38;;;;;;;;;;;;;;;18.30;85.72;98665.22;4954169;28;20262;-62
2021/07/13 08:14:04;;;;;;;;;;;;;;;18.30;85.56;98666.03;4954650;28;19914;-62
2021/07/13 08:16:30;;;;;;;;;;;;;;;17.96;88.48;98663.00;4954205;28;20361;-62
2021/07/13 08:18:56;;;;;;;;;;;;;;;17.93;88.45;98666.34;4954856;28;19922;-62
2021/07/13 08:21:21;;;;;;;;;;;;;;;18.22;86.32;98664.06;4957483;28;19968;-62
2021/07/13 08:23:46;;;;;;;;;;;;;;;18.14;87.47;98662.03;4958183;28;20340;-62
2021/07/13 08:26:12;;;;;;;;;;;;;;;17.60;88.75;98659.13;4957771;28;19914;-62
2021/07/13 08:28:37;;;;;;;;;;;;;;;18.12;86.98;98656.13;4958054;28;19921;-62
2021/07/13 08:31:03;;;;;;;;;;;;;;;18.07;87.67;98657.06;4957539;28;20292;-62
2021/07/13 08:33:28;;;;;;;;;;;;;;;18.22;87.01;98655.91;4956684;28;19911;-62
2021/07/13 08:35:53;;;;;;;;;;;;;;;18.29;85.69;98640.00;4957338;28;19919;-62
2021/07/13 08:38:19;;;;;;;;;;;;;;;18.00;88.13;98645.03;4957995;28;19925;-63
2021/07/13 08:40:44;;;;;;;;;;;;;;;18.38;85.94;98650.13;4957427;28;20261;-62
2021/07/13 08:43:09;;;;;;;;;;;;;;;18.45;86.05;98645.88;4956483;28;19914;-62
2021/07/13 08:45:34;;;;;;;;;;;;;;;18.81;84.29;98641.50;4955932;29;19941;-62
2021/07/13 08:48:01;;;;;;;;;;;;;;;18.77;83.71;98645.94;4957363;28;20273;-62
2021/07/13 08:50:26;;;;;;;;;;;;;;;18.99;82.98;98648.59;4957213;28;20361;-63
2021/07/13 08:52:51;;;;;;;;;;;;;;;18.82;84.36;98645.78;4957902;28;19910;-62
2021/07/13 08:55:17;;;;;;;;;;;;;;;18.78;84.33;98648.34;4957509;28;19922;-63
2021/07/13 08:57:43;;;;;;;;;;;;;;;18.52;85.41;98645.41;4957593;28;19922;-62
2021/07/13 09:00:09;;;;;;;;;;;;;;;18.30;86.22;98649.75;4956622;28;19921;-62
2021/07/13 09:02:34;;;;;;;;;;;;;;;18.40;85.71;98656.06;4957654;28;20021;-62
2021/07/13 09:05:00;;;;;;;;;;;;;;;18.47;85.63;98659.09;4956298;29;19970;-62
2021/07/13 09:07:25;;;;;;;;;;;;;;;18.36;86.03;98663.19;4956845;28;20365;-62
2021/07/13 09:09:53;;;;;;;;;;;;;;;18.27;85.32;98661.22;4955963;29;19929;-62
2021/07/13 09:12:22;;;;;;;;;;;;;;;18.03;85.80;98663.41;4955486;28;20383;-62
2021/07/13 09:14:47;;;;;;;;;;;;;;;17.69;87.85;98670.03;4957603;28;19918;-61
2021/07/13 09:17:25;;;;;;;;;;;;;;;17.60;88.48;98669.97;4956654;28;19918;-62
2021/07/13 09:20:05;;;;;;;;;;;;;;;17.77;87.66;98672.06;4957131;28;20250;-62
2021/07/13 09:22:30;;;;;;;;;;;;;;;17.87;87.50;98669.16;4956564;28;19918;-62
2021/07/13 09:24:56;;;;;;;;;;;;;;;18.05;87.33;98674.75;4957066;28;19920;-62
2021/07/13 09:27:22;;;;;;;;;;;;;;;17.89;87.58;98672.34;4971235;28;19993;-62
2021/07/13 09:29:48;;;;;;;;;;;;;;;18.18;86.68;98678.53;4956000;29;19953;-62
2021/07/13 09:32:18;;;;;;;;;;;;;;;18.24;85.35;98677.28;4956504;28;20316;-62
2021/07/13 09:34:47;;;;;;;;;;;;;;;17.98;86.39;98685.19;4956905;28;20044;-62
2021/07/13 09:37:20;;;;;;;;;;;;;;;18.05;87.09;98686.38;4956275;28;19922;-62
2021/07/13 09:39:55;;;;;;;;;;;;;;;18.20;86.58;98687.97;4956568;28;20448;-62
2021/07/13 09:42:21;;;;;;;;;;;;;;;18.12;85.89;98685.94;4956382;28;19918;-62
2021/07/13 09:44:46;;;;;;;;;;;;;;;17.98;86.57;98674.34;4956623;28;19910;-62
2021/07/13 09:47:12;;;;;;;;;;;;;;;18.10;86.92;98678.13;4956074;28;19929;-62
2021/07/13 09:49:38;;;;;;;;;;;;;;;18.29;85.89;98683.38;4955236;28;20352;-62
2021/07/13 09:52:04;;;;;;;;;;;;;;;18.32;84.60;98676.56;4956049;28;19918;-62
2021/07/13 09:54:30;;;;;;;;;;;;;;;18.43;84.70;98675.22;4956447;28;19914;-62
2021/07/13 09:56:56;;;;;;;;;;;;;;;18.12;86.01;98669.69;4955987;28;20085;-62
2021/07/13 09:59:21;;;;;;;;;;;;;;;18.08;86.42;98674.13;4956535;28;20384;-62
2021/07/13 10:01:47;;;;;;;;;;;;;;;18.36;85.59;98674.84;4955876;28;19918;-62
2021/07/13 10:04:12;;;;;;;;;;;;;;;18.42;84.74;98679.06;4956283;28;19937;-62
2021/07/13 10:06:37;;;;;;;;;;;;;;;18.65;83.18;98690.72;4954520;28;19919;-62
2021/07/13 10:09:11;;;;;;;;;;;;;;;18.70;83.75;98690.59;4956496;28;19918;-62
2021/07/13 10:11:36;;;;;;;;;;;;;;;18.67;83.48;98688.50;4954594;28;20380;-62
2021/07/13 10:14:01;;;;;;;;;;;;;;;18.81;82.91;98685.72;4955048;28;19961;-62
2021/07/13 10:16:28;;;;;;;;;;;;;;;18.79;83.64;98687.94;4954266;28;20033;-62
2021/07/13 10:18:53;;;;;;;;;;;;;;;18.63;83.64;98689.41;4956109;28;19925;-62
2021/07/13 10:21:18;;;;;;;;;;;;;;;18.80;84.59;98686.06;4955510;28;19918;-62
2021/07/13 10:23:44;;;;;;;;;;;;;;;19.10;82.10;98687.19;4955913;28;19921;-62
2021/07/13 10:26:11;;;;;;;;;;;;;;;19.28;81.87;98688.84;4954281;28;19966;-62
2021/07/13 10:28:36;;;;;;;;;;;;;;;19.13;82.46;98681.91;4955856;28;19917;-62
2021/07/13 10:31:01;;;;;;;;;;;;;;;19.04;82.80;98683.78;4955375;28;19918;-62
2021/07/13 10:33:28;;;;;;;;;;;;;;;19.15;81.33;98690.56;4955865;29;19997;-62
2021/07/13 10:35:53;;;;;;;;;;;;;;;19.37;81.44;98686.19;4955285;28;20372;-62
2021/07/13 10:38:23;;;;;;;;;;;;;;;19.25;81.56;98689.50;4955843;28;19915;-62
2021/07/13 10:40:50;;;;;;;;;;;;;;;19.15;81.84;98678.91;4955150;28;19918;-62
2021/07/13 10:43:16;;;;;;;;;;;;;;;19.18;82.50;98678.28;4969866;28;19945;-62
2021/07/13 10:45:44;;;;;;;;;;;;;;;19.47;80.14;98679.66;4955275;28;19958;-62
2021/07/13 10:48:15;;;;;;;;;;;;;;;19.47;81.41;98674.22;4970412;28;19957;-62
2021/07/13 10:50:42;;;;;;;;;;;;;;;19.61;80.90;98674.91;4955247;28;19922;-62
2021/07/13 10:53:08;;;;;;;;;;;;;;;19.92;78.72;98680.31;4955766;28;20008;-62
2021/07/13 10:55:33;;;;;;;;;;;;;;;20.11;77.32;98679.19;4953776;28;19922;-62
2021/07/13 10:58:14;;;;;;;;;;;;;;;20.28;78.12;98673.75;4955696;28;19921;-62
2021/07/13 11:00:56;;;;;;;;;;;;;;;20.16;76.55;98677.09;4955094;28;20273;-62
2021/07/13 11:03:31;;;;;;;;;;;;;;;20.43;77.45;98681.44;4955664;28;19962;-62
2021/07/13 11:06:08;;;;;;;;;;;;;;;19.92;77.29;98685.75;4955107;28;19919;-62
2021/07/13 11:08:58;;;;;;;;;;;;;;;19.73;78.38;98685.22;4955479;28;19914;-62
2021/07/13 11:11:29;;;;;;;;;;;;;;;19.65;80.32;98683.25;4954867;28;20018;-62
2021/07/13 11:13:56;;;;;;;;;;;;;;;20.05;78.97;98673.13;4955600;28;19936;-62
2021/07/13 11:16:22;;;;;;;;;;;;;;;20.37;77.65;98685.47;4955003;28;19918;-62
2021/07/13 11:18:47;;;;;;;;;;;;;;;20.34;76.41;98688.78;4955320;28;20288;-62
2021/07/13 11:21:13;;;;;;;;;;;;;;;20.53;76.77;98676.81;4954869;28;19922;-62
2021/07/13 11:23:38;;;;;;;;;;;;;;;19.87;77.52;98680.44;4954124;29;19992;-62
2021/07/13 11:26:04;;;;;;;;;;;;;;;19.42;79.40;98682.50;4937496;29;19922;-62
2021/07/13 11:28:29;;;;;;;;;;;;;;;19.91;78.35;98688.75;4954216;29;19945;-62
2021/07/13 11:30:54;;;;;;;;;;;;;;;19.73;78.34;98696.88;4954663;28;20280;-62
2021/07/13 11:33:24;;;;;;;;;;;;;;;20.11;78.50;98687.34;4954164;29;19914;-62
2021/07/13 11:35:52;;;;;;;;;;;;;;;20.24;76.80;98686.41;4954604;28;20372;-62
2021/07/13 11:38:25;;;;;;;;;;;;;;;20.62;76.81;98680.34;4953798;28;19941;-62
2021/07/13 11:41:06;;;;;;;;;;;;;;;20.46;76.50;98680.78;4954573;28;19919;-62
2021/07/13 11:43:32;;;;;;;;;;;;;;;20.80;75.57;98676.47;4955134;28;19919;-62
2021/07/13 11:46:23;;;;;;;;;;;;;;;20.93;73.80;98668.44;4954715;28;19921;-62
2021/07/13 11:49:02;;;;;;;;;;;;;;;21.37;71.83;98666.34;4953827;28;19925;-62
2021/07/13 11:51:37;;;;;;;;;;;;;;;21.58;72.30;98663.72;4954764;28;19925;-62
2021/07/13 11:54:04;;;;;;;;;;;;;;;20.93;75.16;98665.72;4955237;28;20277;-62
2021/07/13 11:56:29;;;;;;;;;;;;;;;21.62;72.56;98664.69;4958169;28;19918;-62
2021/07/13 11:58:54;;;;;;;;;;;;;;;21.64;72.89;98657.75;4958692;28;19922;-62
2021/07/13 12:01:21;;;;;;;;;;;;;;;21.48;72.36;98656.72;4958016;28;19918;-62
2021/07/13 12:03:46;;;;;;;;;;;;;;;21.32;74.13;98667.34;4958773;28;19914;-62
2021/07/13 12:06:12;;;;;;;;;;;;;;;20.99;74.66;98656.22;4958282;28;19920;-62
2021/07/13 12:08:41;;;;;;;;;;;;;;;20.77;75.93;98652.63;4958532;28;20375;-63
2021/07/13 12:11:06;;;;;;;;;;;;;;;20.37;77.23;98660.97;4958052;28;19918;-62
2021/07/13 12:13:31;;;;;;;;;;;;;;;19.86;79.44;98665.25;4958372;28;19962;-62
2021/07/13 12:16:19;;;;;;;;;;;;;;;20.06;78.50;98668.47;4957949;28;19918;-62
2021/07/13 12:18:44;;;;;;;;;;;;;;;20.55;77.21;98669.16;4958530;28;19926;-62
2021/07/13 12:21:14;;;;;;;;;;;;;;;20.11;77.99;98669.09;4957856;28;19919;-63
2021/07/13 12:23:40;;;;;;;;;;;;;;;20.28;78.08;98662.88;4957212;29;19921;-61
2021/07/13 12:26:22;;;;;;;;;;;;;;;20.14;79.17;98665.75;4972591;28;19918;-62
2021/07/13 12:29:06;;;;;;;;;;;;;;;19.83;78.69;98665.88;4958300;28;20258;-61
2021/07/13 12:31:32;;;;;;;;;;;;;;;20.40;78.47;98670.41;4957740;28;19954;-61
2021/07/13 12:33:57;;;;;;;;;;;;;;;21.03;76.16;98662.63;4957928;28;19969;-62
2021/07/13 12:36:32;;;;;;;;;;;;;;;20.78;76.29;98661.59;4957508;28;19928;-62
2021/07/13 12:38:59;;;;;;;;;;;;;;;21.30;74.43;98667.66;4957880;28;20365;-61
2021/07/13 12:41:28;;;;;;;;;;;;;;;21.30;73.30;98667.66;4956007;28;19925;-61
2021/07/13 12:43:53;;;;;;;;;;;;;;;21.38;73.80;98673.41;4957960;28;20403;-61
2021/07/13 12:46:25;;;;;;;;;;;;;;;21.24;74.96;98669.00;4955995;29;19919;-62